corner wetterturnier
Startseite
Anmeldung
Terminplan
Wetterdaten
Abgabeformular
Turnierübersicht
Wertungen
Archiv
Statistik
Das Forum
Die Mitspieler
Das Verfahren
Das Team
created by lutix
| Spielstände: | Berlin | Wien | Zürich | Innsbruck | Leipzig | Spielregeln | 18.10.2017, 12:15:45UTC

Prognoseturnier - Forum / Discussion Board

Herzlich Willkommen im Forum des Berliner Wetterprognoseturniers. Die Turnierleitung wünscht allen Mitspielern und Besuchern
viel Spaß beim Diskutieren von Wetterlagen, Turnier, Regelwerk und vielem mehr.

Wien Schwechat fehlt Vormittags die 8 ...
geschrieben von: Mammatus95 (IP bekannt)
Datum: 13.05.17 19:58

##################################################
# SYNOPS de 11036, Wien / Schwechat-Flughafen (Austria)
##################################################

201705131200 AAXX 13121 11036 16674 72909 10211 20120 39896 40106 50001 60041
333 81836 83361 86078 81950 90760 91114==

201705131100 AAXX 13111 11036 26580 72809 10203 20116 39895 40106 50002
333 60005 81832 86078 81950 90710 91113==

201705131000 AAXX 13101 11036 46581 72806 10184 20134 39895 40107 50012
333 81830 83362 86078 81950==

201705130900 AAXX 13091 11036 21577 72804 10158 20130 39895 40109 53022 780//
333 60035 81822 83642 85358 81950==

201705130800 AAXX 13081 11036 21557 83007 10145 20126 39892 40107 50027 781//
333 60015 81828 86650 81950==

201705130700 AAXX 13071 11036 21682 80002 10158 20123 39883 40097 53020 715//
333 60005 81848 86650 81950==

201705130600 AAXX 13061 11036 46783 73103 10164 20113 39873 40086 53017
333 20102 30009 81856 86657 81956==

Bitte prüfen !

Viele Grüße und Danke für die klasse WB

Mammatus95



1 mal bearbeitet. Zuletzt am 13.05.17 20:01.



Thema Zugriffe Autor Datum/Zeit
Brrr...schlotter... Eisheiligen-WB am 12.5-14.5 ;-) 207 Alexander 12.05.17 10:43
     Besten Dank für die Einstimmung ins spannende Tipp-WE -ot- 94 Marcus Beyer 12.05.17 13:09
     Vielen Dank für die wundervolle WB! 104 Kaltlufttropfen 12.05.17 14:32
        Danke für die ausfürhliche und spannende Wetterbesprechung! 99 Heiko 12.05.17 15:57
     Dankeschön und viel Spass beim Nowcasting ;-) 127 LukasRtM 12.05.17 15:56
     ...eine weltklasse WB, danke Alexander! 114 Georg Haas 12.05.17 17:20
        Innsbruck trocken 110 Georg Haas 13.05.17 19:42
           Re: Ganz Innsbruck trocken, nein, ein kleines ... 105 Alexander 14.05.17 09:37
              Re: Innsbruck trocken 102 nik 15.05.17 13:22
     Wien Schwechat fehlt Vormittags die 8 ... 92 Mammatus95 13.05.17 19:58


Navigation: ThemenübersichtSucheAnmelden
Ihr Name: 
Ihre E-Mail: 
Thema: 
Font color: Emoticons:     •View All SmileysClose Tags
 
Message: